Rechercher aéroport 
image banner adimage banner adimage banner ad
image banner ad

SV110 - Heliplataforma Ps3

Situé à Peninsula De Paraguana, Venezuela

ICAO - , IATA -

Données fournies par Airmate  

Information générale

Coordonnées: N11°57'37" W70°32'16"
Élévation : feet MSL.
 
Voir autres Aéroports à Apure

Données opérationnelles

Special qualification required
Heure actuelle UTC:
Heure actuelle locale:
TAF: TAF SVJC 240400Z 2406/2506 09012KT 9999 SCT013 TX35/2406Z TN22/2408Z BECMG 2404/2410 08015KT 9999 SCT013
Voir NOTAMs / SUP AIP / TFR affectant cet aéroport [VIEW]
Fréquences de communication: [VIEW]

Pistes:

Coordonnées de l'aéroport

Adresse: Peninsula De Paraguana Venezuela

Vue satellite de SV110